createdAt,value
2024-01-31T00:00:12.908Z,13.63
2024-01-31T00:02:38.435Z,13.43
2024-01-31T00:04:48.391Z,13.55
2024-01-31T00:06:58.261Z,13.52
2024-01-31T00:09:04.014Z,13.23
2024-01-31T00:11:10.621Z,15.32
2024-01-31T00:13:21.685Z,14.65
2024-01-31T00:15:31.567Z,13.73
2024-01-31T00:17:37.957Z,14.00
2024-01-31T00:19:41.877Z,12.80
2024-01-31T00:21:51.646Z,13.82
2024-01-31T00:23:57.598Z,13.35
2024-01-31T00:26:01.918Z,12.48
2024-01-31T00:28:07.664Z,12.73
2024-01-31T00:30:22.128Z,12.45
2024-01-31T00:32:42.606Z,12.27
2024-01-31T00:34:51.111Z,11.27
2024-01-31T00:36:55.479Z,11.70
2024-01-31T00:39:04.349Z,11.63
2024-01-31T00:41:11.040Z,10.65
2024-01-31T00:43:16.537Z,9.80
2024-01-31T00:45:23.502Z,10.35
2024-01-31T00:47:30.278Z,10.45
2024-01-31T00:49:34.604Z,11.07
2024-01-31T00:51:45.331Z,10.63
2024-01-31T00:53:54.314Z,10.02
2024-01-31T00:56:00.272Z,11.23
2024-01-31T00:58:06.571Z,10.30
2024-01-31T01:00:19.244Z,11.55
2024-01-31T01:02:42.016Z,12.70
2024-01-31T01:04:53.387Z,11.07
2024-01-31T01:06:57.262Z,11.18
2024-01-31T01:09:03.635Z,10.77
2024-01-31T01:11:11.509Z,10.38
2024-01-31T01:13:17.915Z,11.30
2024-01-31T01:15:23.254Z,12.20
2024-01-31T01:17:27.307Z,10.75
2024-01-31T01:19:32.552Z,11.50
2024-01-31T01:21:37.896Z,10.93
2024-01-31T01:23:42.532Z,9.25
2024-01-31T01:25:49.609Z,9.55
2024-01-31T01:27:53.333Z,9.15
2024-01-31T01:29:57.189Z,8.93
2024-01-31T01:32:05.228Z,9.07
2024-01-31T01:34:15.736Z,9.38
2024-01-31T01:36:25.359Z,8.00
2024-01-31T01:38:33.629Z,7.45
2024-01-31T01:40:46.872Z,8.35
2024-01-31T01:42:50.627Z,8.30
2024-01-31T01:44:56.641Z,8.18
2024-01-31T01:47:04.319Z,7.25
2024-01-31T01:49:08.374Z,7.38
2024-01-31T01:51:22.105Z,7.47
2024-01-31T01:53:25.903Z,7.25
2024-01-31T01:55:34.246Z,7.35
2024-01-31T01:57:40.058Z,7.85
2024-01-31T01:59:46.104Z,6.60
2024-01-31T02:01:56.433Z,6.60
2024-01-31T02:04:01.461Z,6.63
2024-01-31T02:06:06.175Z,7.30
2024-01-31T02:08:10.519Z,6.13
2024-01-31T02:10:14.082Z,6.82
2024-01-31T02:12:21.058Z,6.80
2024-01-31T02:14:24.754Z,5.85
2024-01-31T02:16:31.181Z,5.78
2024-01-31T02:18:41.662Z,5.90
2024-01-31T02:20:48.653Z,5.32
2024-01-31T02:22:56.807Z,5.68
2024-01-31T02:25:03.912Z,4.45
2024-01-31T02:27:13.795Z,4.28
2024-01-31T02:29:17.087Z,4.43
2024-01-31T02:31:25.603Z,3.95
2024-01-31T02:33:31.873Z,4.05
2024-01-31T02:35:37.129Z,3.70
2024-01-31T02:37:44.982Z,3.90
2024-01-31T02:39:53.896Z,3.40
2024-01-31T02:41:58.893Z,3.78
2024-01-31T02:44:08.031Z,3.65
2024-01-31T02:46:13.665Z,3.53
2024-01-31T02:48:17.432Z,3.42
2024-01-31T02:50:21.489Z,3.55
2024-01-31T02:52:29.741Z,3.50
2024-01-31T02:54:35.563Z,3.97
2024-01-31T02:56:39.387Z,3.55
2024-01-31T02:58:43.690Z,3.92
2024-01-31T03:00:47.741Z,3.65
2024-01-31T03:03:07.601Z,4.05
2024-01-31T03:05:14.829Z,4.32
2024-01-31T03:07:23.508Z,3.72
2024-01-31T03:09:29.459Z,3.35
2024-01-31T03:11:33.157Z,3.67
2024-01-31T03:13:43.875Z,3.55
2024-01-31T03:15:52.598Z,4.05
2024-01-31T03:18:02.815Z,3.65
2024-01-31T03:20:12.450Z,3.83
2024-01-31T03:22:24.047Z,3.95
2024-01-31T03:24:30.240Z,3.47
2024-01-31T03:26:33.597Z,3.92
2024-01-31T03:28:39.455Z,4.43
2024-01-31T03:30:44.416Z,4.13
2024-01-31T03:32:52.296Z,3.80
2024-01-31T03:34:55.729Z,3.58
2024-01-31T03:36:59.489Z,3.97
2024-01-31T03:39:03.562Z,3.95
2024-01-31T03:41:09.724Z,4.07
2024-01-31T03:43:19.415Z,3.55
2024-01-31T03:45:23.318Z,4.25
2024-01-31T03:47:30.400Z,3.90
2024-01-31T03:49:36.096Z,3.50
2024-01-31T03:51:40.397Z,3.97
2024-01-31T03:53:45.856Z,3.72
2024-01-31T03:55:50.082Z,3.67
2024-01-31T03:57:53.807Z,4.47
2024-01-31T04:00:06.622Z,4.88
2024-01-31T04:02:27.847Z,5.07
2024-01-31T04:04:34.214Z,4.93
2024-01-31T04:06:40.020Z,4.97
2024-01-31T04:08:43.935Z,5.72
2024-01-31T04:10:47.949Z,5.22
2024-01-31T04:12:54.205Z,4.15
2024-01-31T04:14:57.670Z,5.28
2024-01-31T04:17:04.659Z,5.30
2024-01-31T04:19:10.665Z,4.75
2024-01-31T04:21:26.295Z,4.35
2024-01-31T04:23:31.522Z,4.55
2024-01-31T04:25:40.504Z,5.22
2024-01-31T04:27:46.463Z,5.22
2024-01-31T04:29:52.737Z,4.38
2024-01-31T04:32:01.256Z,5.00
2024-01-31T04:34:08.926Z,4.07
2024-01-31T04:36:13.650Z,4.43
2024-01-31T04:38:20.762Z,4.28
2024-01-31T04:40:25.022Z,5.05
2024-01-31T04:42:30.184Z,4.47
2024-01-31T04:44:36.307Z,4.72
2024-01-31T04:46:41.282Z,5.38
2024-01-31T04:48:51.064Z,4.70
2024-01-31T04:51:00.616Z,4.55
2024-01-31T04:53:07.026Z,5.10
2024-01-31T04:55:12.657Z,5.25
2024-01-31T04:57:23.323Z,4.88
2024-01-31T04:59:31.525Z,5.03
2024-01-31T05:01:37.642Z,4.90
2024-01-31T05:03:43.818Z,6.03
2024-01-31T05:05:48.367Z,4.82
2024-01-31T05:07:54.849Z,4.90
2024-01-31T05:10:04.981Z,4.43
2024-01-31T05:12:11.366Z,6.80
2024-01-31T05:14:16.479Z,5.50
2024-01-31T05:16:22.698Z,5.28
2024-01-31T05:18:31.022Z,6.40
2024-01-31T05:20:35.176Z,5.85
2024-01-31T05:22:42.377Z,5.97
2024-01-31T05:24:48.371Z,6.45
2024-01-31T05:26:57.481Z,5.97
2024-01-31T05:29:05.505Z,6.35
2024-01-31T05:31:10.772Z,6.45
2024-01-31T05:33:14.914Z,5.97
2024-01-31T05:35:18.731Z,6.55
2024-01-31T05:37:24.995Z,6.10
2024-01-31T05:39:28.990Z,6.35
2024-01-31T05:41:33.377Z,6.28
2024-01-31T05:43:37.939Z,7.60
2024-01-31T05:45:44.956Z,6.68
2024-01-31T05:47:52.206Z,7.07
2024-01-31T05:49:56.146Z,7.28
2024-01-31T05:52:00.702Z,7.72
2024-01-31T05:54:10.960Z,7.28
2024-01-31T05:56:18.626Z,7.13
2024-01-31T05:58:25.125Z,6.47
2024-01-31T06:00:30.804Z,6.13
2024-01-31T06:02:59.975Z,6.75
2024-01-31T06:05:08.903Z,5.70
2024-01-31T06:07:18.369Z,5.90
2024-01-31T06:09:25.294Z,5.80
2024-01-31T06:11:31.552Z,6.35
2024-01-31T06:13:40.522Z,6.10
2024-01-31T06:15:47.388Z,6.00
2024-01-31T06:17:51.902Z,5.53
2024-01-31T06:19:56.307Z,6.20
2024-01-31T06:22:05.927Z,6.25
2024-01-31T06:24:10.270Z,6.05
2024-01-31T06:26:16.262Z,5.82
2024-01-31T06:28:27.472Z,6.40
2024-01-31T06:30:49.870Z,6.15
2024-01-31T06:33:11.467Z,6.35
2024-01-31T06:35:22.126Z,5.80
2024-01-31T06:37:30.682Z,6.13
2024-01-31T06:39:36.303Z,6.25
2024-01-31T06:41:40.063Z,6.47
2024-01-31T06:43:47.656Z,6.65
2024-01-31T06:45:55.068Z,6.55
2024-01-31T06:48:02.526Z,7.30
2024-01-31T06:50:11.455Z,6.35
2024-01-31T06:52:23.073Z,6.82
2024-01-31T06:54:29.063Z,5.78
2024-01-31T06:56:36.703Z,6.75
2024-01-31T06:58:40.609Z,6.07
2024-01-31T07:00:49.182Z,6.32
2024-01-31T07:03:02.982Z,6.55
2024-01-31T07:05:11.631Z,7.10
2024-01-31T07:07:15.247Z,6.75
2024-01-31T07:09:23.666Z,6.80
2024-01-31T07:11:30.309Z,6.22
2024-01-31T07:13:41.912Z,5.95
2024-01-31T07:15:48.529Z,6.32
2024-01-31T07:17:54.529Z,5.93
2024-01-31T07:20:01.215Z,6.28
2024-01-31T07:22:14.130Z,6.28
2024-01-31T07:24:27.841Z,6.38
2024-01-31T07:26:33.014Z,6.38
2024-01-31T07:28:44.635Z,7.10
2024-01-31T07:30:48.917Z,6.22
2024-01-31T07:32:55.892Z,6.18
2024-01-31T07:35:02.426Z,6.30
2024-01-31T07:37:12.348Z,6.65
2024-01-31T07:39:24.112Z,7.35
2024-01-31T07:41:30.608Z,7.00
2024-01-31T07:43:43.522Z,6.35
2024-01-31T07:45:47.773Z,6.55
2024-01-31T07:47:53.899Z,7.93
2024-01-31T07:49:57.930Z,6.65
2024-01-31T07:52:01.919Z,6.95
2024-01-31T07:54:08.957Z,6.40
2024-01-31T07:56:16.977Z,6.63
2024-01-31T07:58:25.481Z,7.07
2024-01-31T08:00:34.386Z,6.53
2024-01-31T08:02:59.109Z,6.97
2024-01-31T08:05:07.541Z,7.18
2024-01-31T08:07:14.600Z,7.07
2024-01-31T08:09:22.986Z,6.60
2024-01-31T08:11:29.948Z,7.55
2024-01-31T08:13:38.605Z,7.68
2024-01-31T08:15:47.455Z,8.27
2024-01-31T08:17:57.974Z,7.40
2024-01-31T08:20:01.788Z,7.72
2024-01-31T08:22:11.899Z,7.63
2024-01-31T08:24:20.123Z,8.43
2024-01-31T08:26:25.885Z,8.57
2024-01-31T08:28:34.271Z,7.28
2024-01-31T08:30:40.942Z,7.43
2024-01-31T08:33:01.166Z,8.07
2024-01-31T08:35:09.580Z,7.50
2024-01-31T08:37:15.642Z,7.53
2024-01-31T08:39:19.223Z,8.27
2024-01-31T08:41:23.563Z,7.53
2024-01-31T08:43:29.558Z,7.90
2024-01-31T08:45:35.815Z,8.07
2024-01-31T08:47:43.262Z,8.25
2024-01-31T08:49:52.833Z,7.45
2024-01-31T08:51:56.887Z,8.00
2024-01-31T08:54:03.645Z,49.42
2024-01-31T08:56:09.772Z,18.42
2024-01-31T08:58:16.084Z,9.27
2024-01-31T09:00:20.726Z,6.90
2024-01-31T09:02:38.206Z,7.28
2024-01-31T09:04:42.111Z,6.22
2024-01-31T09:06:46.247Z,7.05
2024-01-31T09:08:52.954Z,5.95
2024-01-31T09:11:01.149Z,5.55
2024-01-31T09:13:08.488Z,6.07
2024-01-31T09:15:12.195Z,6.05
2024-01-31T09:17:20.623Z,6.43
2024-01-31T09:19:27.948Z,5.95
2024-01-31T09:21:31.610Z,6.13
2024-01-31T09:23:38.113Z,5.45
2024-01-31T09:25:41.824Z,6.88
2024-01-31T09:27:45.572Z,7.53
2024-01-31T09:29:49.361Z,6.85
2024-01-31T09:31:53.954Z,7.10
2024-01-31T09:33:58.393Z,8.60
2024-01-31T09:36:05.319Z,8.45
2024-01-31T09:38:09.332Z,7.03
2024-01-31T09:40:17.506Z,7.53
2024-01-31T09:42:23.600Z,7.30
2024-01-31T09:44:30.220Z,8.60
2024-01-31T09:46:36.975Z,8.30
2024-01-31T09:48:44.344Z,7.65
2024-01-31T09:50:50.694Z,7.30
2024-01-31T09:52:55.397Z,8.35
2024-01-31T09:55:00.024Z,8.02
2024-01-31T09:57:05.281Z,9.00
2024-01-31T09:59:12.167Z,8.60
2024-01-31T10:01:25.764Z,8.32
2024-01-31T10:03:42.504Z,8.23
2024-01-31T10:05:51.519Z,7.65
2024-01-31T10:08:02.896Z,7.47
2024-01-31T10:10:08.026Z,8.73
2024-01-31T10:12:17.413Z,9.73
2024-01-31T10:14:21.267Z,8.70
2024-01-31T10:16:29.811Z,8.27
2024-01-31T10:18:40.684Z,8.77
2024-01-31T10:20:54.524Z,9.93
2024-01-31T10:23:01.385Z,9.50
2024-01-31T10:25:07.929Z,8.88
2024-01-31T10:27:19.115Z,9.05
2024-01-31T10:29:23.653Z,8.95
2024-01-31T10:31:31.523Z,9.18
2024-01-31T10:33:37.533Z,9.13
2024-01-31T10:36:24.880Z,9.57
2024-01-31T10:38:16.340Z,8.90
2024-01-31T10:40:29.213Z,9.23
2024-01-31T10:42:33.013Z,8.90
2024-01-31T10:44:41.078Z,9.63
2024-01-31T10:46:47.468Z,9.55
2024-01-31T10:48:54.606Z,9.15
2024-01-31T10:51:04.611Z,8.48
2024-01-31T10:53:14.323Z,7.88
2024-01-31T10:55:27.082Z,8.68
2024-01-31T10:57:31.948Z,8.32
2024-01-31T10:59:42.137Z,8.07
2024-01-31T11:01:57.148Z,7.80
2024-01-31T11:04:04.327Z,8.00
2024-01-31T11:06:11.741Z,7.75
2024-01-31T11:08:20.942Z,8.32
2024-01-31T11:10:29.499Z,6.97
2024-01-31T11:12:32.914Z,7.30
2024-01-31T11:14:36.631Z,7.40
2024-01-31T11:16:40.301Z,7.85
2024-01-31T11:18:52.237Z,7.07
2024-01-31T11:20:58.013Z,7.43
2024-01-31T11:23:06.610Z,8.32
2024-01-31T11:25:13.892Z,7.70
2024-01-31T11:27:19.100Z,8.70
2024-01-31T11:29:24.624Z,8.18
2024-01-31T11:31:31.199Z,8.00
2024-01-31T11:33:37.725Z,8.88
2024-01-31T11:35:46.863Z,8.50
2024-01-31T11:37:51.520Z,8.82
2024-01-31T11:40:00.213Z,9.20
2024-01-31T11:42:09.311Z,8.13
2024-01-31T11:44:14.200Z,9.38
2024-01-31T11:46:23.017Z,7.43
2024-01-31T11:48:28.005Z,9.02
2024-01-31T11:50:32.080Z,8.13
2024-01-31T11:52:36.443Z,9.20
2024-01-31T11:54:42.642Z,9.60
2024-01-31T11:56:49.313Z,9.55
2024-01-31T11:58:57.482Z,9.00
2024-01-31T12:01:01.312Z,9.20
2024-01-31T12:03:06.902Z,9.57
2024-01-31T12:05:14.821Z,9.65
2024-01-31T12:07:19.619Z,10.02
2024-01-31T12:09:25.336Z,10.07
2024-01-31T12:11:30.498Z,10.35
2024-01-31T12:13:34.380Z,10.10
2024-01-31T12:15:40.765Z,9.95
2024-01-31T12:17:47.568Z,9.20
2024-01-31T12:20:14.048Z,10.57
2024-01-31T12:22:22.434Z,10.80
2024-01-31T12:24:26.373Z,11.07
2024-01-31T12:26:33.612Z,9.85
2024-01-31T12:28:43.378Z,9.98
2024-01-31T12:30:49.234Z,10.27
2024-01-31T12:33:01.143Z,10.73
2024-01-31T12:35:06.435Z,9.68
2024-01-31T12:37:13.043Z,11.27
2024-01-31T12:39:21.916Z,10.43
2024-01-31T12:41:31.556Z,10.43
2024-01-31T12:43:38.460Z,10.68
2024-01-31T12:45:42.619Z,9.82
2024-01-31T12:47:50.286Z,9.18
2024-01-31T12:50:00.405Z,9.38
2024-01-31T12:52:08.777Z,10.18
2024-01-31T12:54:13.978Z,9.30
2024-01-31T12:56:22.221Z,9.07
2024-01-31T12:58:27.153Z,7.90
2024-01-31T13:00:32.780Z,6.75
2024-01-31T13:02:55.701Z,5.72
2024-01-31T13:05:03.272Z,7.40
2024-01-31T13:07:10.083Z,8.05
2024-01-31T13:09:18.140Z,7.68
2024-01-31T13:11:25.382Z,7.97
2024-01-31T13:13:28.986Z,8.13
2024-01-31T13:15:36.254Z,7.50
2024-01-31T13:17:45.781Z,7.90
2024-01-31T13:19:49.240Z,6.82
2024-01-31T13:21:54.631Z,7.10
2024-01-31T13:24:00.988Z,6.70
2024-01-31T13:26:08.927Z,6.22
2024-01-31T13:28:17.820Z,6.35
2024-01-31T13:30:26.466Z,8.65
2024-01-31T13:32:48.412Z,6.00
2024-01-31T13:34:55.392Z,4.60
2024-01-31T13:37:02.261Z,5.93
2024-01-31T13:39:07.974Z,4.60
2024-01-31T13:41:13.899Z,5.78
2024-01-31T13:43:19.688Z,5.35
2024-01-31T13:45:26.105Z,5.35
2024-01-31T13:47:32.631Z,4.55
2024-01-31T13:49:39.410Z,4.03
2024-01-31T13:51:46.079Z,4.03
2024-01-31T13:53:56.440Z,5.47
2024-01-31T13:56:00.053Z,4.32
2024-01-31T13:58:05.903Z,4.82
2024-01-31T14:00:14.777Z,4.10
2024-01-31T14:02:31.213Z,5.13
2024-01-31T14:04:41.903Z,5.13
2024-01-31T14:06:47.861Z,5.03
2024-01-31T14:08:51.570Z,5.65
2024-01-31T14:10:55.184Z,5.82
2024-01-31T14:13:03.038Z,5.72
2024-01-31T14:15:07.924Z,5.47
2024-01-31T14:17:18.121Z,5.57
2024-01-31T14:19:22.533Z,5.65
2024-01-31T14:21:28.779Z,5.15
2024-01-31T14:23:43.502Z,6.00
2024-01-31T14:25:48.418Z,6.00
2024-01-31T14:27:55.172Z,8.02
2024-01-31T14:30:02.889Z,6.40
2024-01-31T14:32:28.778Z,5.03
2024-01-31T14:34:34.482Z,5.82
2024-01-31T14:36:45.073Z,10.88
2024-01-31T14:38:49.220Z,5.80
2024-01-31T14:40:53.996Z,5.25
2024-01-31T14:43:00.175Z,5.05
2024-01-31T14:45:04.124Z,4.00
2024-01-31T14:47:12.921Z,5.38
2024-01-31T14:49:19.490Z,5.20
2024-01-31T14:51:23.365Z,4.90
2024-01-31T14:53:26.810Z,8.88
2024-01-31T14:55:35.479Z,7.60
2024-01-31T14:57:42.874Z,5.45
2024-01-31T14:59:50.287Z,4.30
2024-01-31T15:01:59.194Z,4.20
2024-01-31T15:04:02.828Z,3.80
2024-01-31T15:06:09.903Z,3.88
2024-01-31T15:08:14.312Z,4.55
2024-01-31T15:10:20.456Z,3.40
2024-01-31T15:12:28.700Z,3.50
2024-01-31T15:14:32.274Z,3.90
2024-01-31T15:16:40.605Z,3.58
2024-01-31T15:18:45.618Z,3.42
2024-01-31T15:20:49.834Z,3.08
2024-01-31T15:22:54.196Z,10.95
2024-01-31T15:25:06.000Z,6.03
2024-01-31T15:27:13.838Z,3.63
2024-01-31T15:29:18.905Z,4.13
2024-01-31T15:31:22.984Z,4.32
2024-01-31T15:33:41.969Z,3.33
2024-01-31T15:35:46.149Z,3.28
2024-01-31T15:37:52.828Z,3.42
2024-01-31T15:40:01.854Z,3.58
2024-01-31T15:42:08.357Z,4.10
2024-01-31T15:44:18.702Z,3.03
2024-01-31T15:46:27.386Z,4.30
2024-01-31T15:48:31.120Z,3.47
2024-01-31T15:50:39.111Z,19.15
2024-01-31T15:52:48.237Z,15.95
2024-01-31T15:54:56.658Z,4.40
2024-01-31T15:57:02.793Z,2.85
2024-01-31T15:59:09.194Z,2.97
2024-01-31T16:01:17.763Z,2.80
2024-01-31T16:03:25.097Z,3.03
2024-01-31T16:05:30.154Z,2.75
2024-01-31T16:07:35.015Z,2.53
2024-01-31T16:09:45.936Z,2.10
2024-01-31T16:11:50.124Z,2.35
2024-01-31T16:13:56.699Z,2.40
2024-01-31T16:16:01.068Z,1.75
2024-01-31T16:18:09.830Z,1.95
2024-01-31T16:20:20.846Z,2.33
2024-01-31T16:22:27.477Z,2.30
2024-01-31T16:24:32.151Z,1.73
2024-01-31T16:26:41.821Z,2.00
2024-01-31T16:28:47.838Z,2.13
2024-01-31T16:30:56.702Z,1.95
2024-01-31T16:33:17.128Z,2.00
2024-01-31T16:35:23.182Z,2.05
2024-01-31T16:37:30.071Z,1.65
2024-01-31T16:39:42.438Z,1.80
2024-01-31T16:41:52.564Z,1.90
2024-01-31T16:43:58.210Z,2.10
2024-01-31T16:46:04.285Z,2.38
2024-01-31T16:48:10.339Z,2.28
2024-01-31T16:50:14.254Z,1.83
2024-01-31T16:52:20.292Z,2.40
2024-01-31T16:54:26.444Z,2.17
2024-01-31T16:56:32.392Z,1.98
2024-01-31T16:58:42.743Z,1.90
2024-01-31T17:00:47.647Z,14.50
2024-01-31T17:03:06.502Z,3.08
2024-01-31T17:05:15.534Z,5.88
2024-01-31T17:07:21.688Z,2.35
2024-01-31T17:09:26.175Z,1.90
2024-01-31T17:11:32.420Z,2.33
2024-01-31T17:13:39.316Z,2.47
2024-01-31T17:15:45.598Z,3.50
2024-01-31T17:17:57.829Z,2.60
2024-01-31T17:20:03.254Z,2.63
2024-01-31T17:22:20.138Z,2.13
2024-01-31T17:24:24.373Z,2.20
2024-01-31T17:26:32.796Z,2.50
2024-01-31T17:28:38.576Z,2.28
2024-01-31T17:30:44.305Z,2.33
2024-01-31T17:33:12.056Z,2.55
2024-01-31T17:35:18.234Z,2.40
2024-01-31T17:37:24.714Z,2.33
2024-01-31T17:39:28.242Z,2.53
2024-01-31T17:41:32.085Z,2.45
2024-01-31T17:43:41.130Z,3.03
2024-01-31T17:45:45.515Z,3.22
2024-01-31T17:47:50.281Z,3.22
2024-01-31T17:49:54.360Z,3.40
2024-01-31T17:51:58.362Z,2.70
2024-01-31T17:54:02.123Z,2.90
2024-01-31T17:56:06.635Z,2.92
2024-01-31T17:58:10.418Z,2.40
2024-01-31T18:00:20.147Z,3.78
2024-01-31T18:02:44.024Z,3.22
2024-01-31T18:04:48.408Z,3.38
2024-01-31T18:06:54.173Z,3.35
2024-01-31T18:09:01.431Z,3.40
2024-01-31T18:11:06.906Z,3.70
2024-01-31T18:13:10.630Z,3.03
2024-01-31T18:15:19.554Z,5.40
2024-01-31T18:17:27.081Z,4.13
2024-01-31T18:19:30.828Z,4.40
2024-01-31T18:21:37.355Z,4.07
2024-01-31T18:23:43.714Z,3.00
2024-01-31T18:25:50.188Z,2.90
2024-01-31T18:27:56.810Z,2.88
2024-01-31T18:30:06.291Z,3.80
2024-01-31T18:32:27.269Z,3.95
2024-01-31T18:34:31.749Z,2.90
2024-01-31T18:36:36.561Z,3.58
2024-01-31T18:38:41.191Z,3.25
2024-01-31T18:40:46.455Z,3.38
2024-01-31T18:42:52.537Z,13.43
2024-01-31T18:44:56.927Z,6.15
2024-01-31T18:47:06.820Z,4.15
2024-01-31T18:49:11.364Z,6.63
2024-01-31T18:51:18.100Z,7.68
2024-01-31T18:53:24.456Z,7.47
2024-01-31T18:55:31.467Z,10.85
2024-01-31T18:57:35.268Z,8.00
2024-01-31T18:59:38.813Z,5.30
2024-01-31T19:01:42.808Z,15.10
2024-01-31T19:03:49.498Z,10.27
2024-01-31T19:05:58.006Z,21.45
2024-01-31T19:08:10.481Z,12.60
2024-01-31T19:10:22.231Z,5.00
2024-01-31T19:12:33.614Z,7.22
2024-01-31T19:14:46.353Z,5.40
2024-01-31T19:17:04.472Z,6.15
2024-01-31T19:19:14.982Z,4.72
2024-01-31T19:21:22.136Z,4.68
2024-01-31T19:23:25.562Z,8.30
2024-01-31T19:25:29.040Z,7.75
2024-01-31T19:27:35.724Z,8.40
2024-01-31T19:29:44.424Z,9.35
2024-01-31T19:31:52.668Z,7.53
2024-01-31T19:34:00.377Z,8.93
2024-01-31T19:36:06.011Z,7.10
2024-01-31T19:38:14.999Z,10.23
2024-01-31T19:40:20.654Z,5.68
2024-01-31T19:42:30.421Z,12.52
2024-01-31T19:44:36.830Z,12.00
2024-01-31T19:46:58.779Z,11.73
2024-01-31T19:49:02.544Z,10.27
2024-01-31T19:51:14.408Z,9.32
2024-01-31T19:53:19.770Z,4.63
2024-01-31T19:55:25.554Z,3.35
2024-01-31T19:57:32.723Z,4.00
2024-01-31T19:59:40.440Z,3.58
2024-01-31T20:01:46.867Z,4.68
2024-01-31T20:03:51.084Z,4.00
2024-01-31T20:05:55.569Z,5.78
2024-01-31T20:08:01.216Z,3.33
2024-01-31T20:10:06.783Z,3.80
2024-01-31T20:12:20.843Z,3.67
2024-01-31T20:14:26.674Z,3.13
2024-01-31T20:16:36.479Z,3.17
2024-01-31T20:18:44.859Z,3.28
2024-01-31T20:20:53.773Z,2.53
2024-01-31T20:22:58.173Z,2.83
2024-01-31T20:25:01.975Z,2.70
2024-01-31T20:27:11.452Z,3.10
2024-01-31T20:29:17.732Z,2.63
2024-01-31T20:31:21.832Z,4.80
2024-01-31T20:33:28.244Z,2.80
2024-01-31T20:35:37.224Z,2.75
2024-01-31T20:37:42.129Z,2.78
2024-01-31T20:39:53.120Z,3.00
2024-01-31T20:42:00.421Z,2.90
2024-01-31T20:44:08.366Z,2.40
2024-01-31T20:46:21.535Z,2.42
2024-01-31T20:48:37.387Z,2.70
2024-01-31T20:50:48.879Z,2.72
2024-01-31T20:52:53.243Z,2.30
2024-01-31T20:55:00.240Z,2.42
2024-01-31T20:57:06.780Z,2.97
2024-01-31T20:59:12.342Z,2.45
2024-01-31T21:01:17.841Z,2.63
2024-01-31T21:03:25.693Z,2.63
2024-01-31T21:05:35.165Z,2.67
2024-01-31T21:07:41.498Z,2.55
2024-01-31T21:09:48.704Z,3.00
2024-01-31T21:11:55.330Z,2.60
2024-01-31T21:14:04.083Z,2.95
2024-01-31T21:16:10.317Z,2.95
2024-01-31T21:18:19.399Z,2.53
2024-01-31T21:20:22.835Z,3.03
2024-01-31T21:22:28.932Z,2.78
2024-01-31T21:24:35.291Z,2.80
2024-01-31T21:26:43.473Z,2.90
2024-01-31T21:28:54.351Z,2.55
2024-01-31T21:30:58.562Z,2.70
2024-01-31T21:33:05.124Z,3.22
2024-01-31T21:35:13.783Z,3.13
2024-01-31T21:37:21.965Z,2.85
2024-01-31T21:39:30.701Z,2.47
2024-01-31T21:41:37.093Z,2.53
2024-01-31T21:43:42.942Z,2.60
2024-01-31T21:45:46.223Z,3.00
2024-01-31T21:49:58.984Z,2.83
2024-01-31T21:52:03.509Z,3.05
2024-01-31T21:54:15.385Z,2.80
2024-01-31T21:56:23.156Z,2.88
2024-01-31T21:58:31.728Z,2.85
2024-01-31T22:00:35.633Z,2.95
2024-01-31T22:02:59.691Z,2.55
2024-01-31T22:05:04.557Z,2.95
2024-01-31T22:07:20.535Z,2.85
2024-01-31T22:09:24.482Z,2.53
2024-01-31T22:11:28.254Z,3.03
2024-01-31T22:13:35.297Z,2.83
2024-01-31T22:15:45.789Z,2.55
2024-01-31T22:17:50.364Z,2.78
2024-01-31T22:19:56.201Z,3.10
2024-01-31T22:22:02.982Z,2.72
2024-01-31T22:24:08.009Z,3.00
2024-01-31T22:26:13.934Z,2.55
2024-01-31T22:28:23.162Z,2.88
2024-01-31T22:30:29.935Z,3.45
2024-01-31T22:32:49.594Z,3.17
2024-01-31T22:35:00.639Z,2.80
2024-01-31T22:37:11.869Z,2.83
2024-01-31T22:39:19.650Z,2.88
2024-01-31T22:41:26.353Z,2.85
2024-01-31T22:43:29.897Z,2.90
2024-01-31T22:45:35.926Z,2.85
2024-01-31T22:47:45.411Z,2.83
2024-01-31T22:49:49.441Z,3.03
2024-01-31T22:51:55.953Z,2.80
2024-01-31T22:54:04.166Z,3.50
2024-01-31T22:56:12.902Z,3.10
2024-01-31T22:58:16.367Z,3.30
2024-01-31T23:00:28.201Z,3.03
2024-01-31T23:02:45.805Z,3.25
2024-01-31T23:04:53.046Z,2.97
2024-01-31T23:06:59.224Z,2.72
2024-01-31T23:09:06.615Z,3.17
2024-01-31T23:11:12.442Z,3.30
2024-01-31T23:13:17.092Z,3.10
2024-01-31T23:15:23.750Z,2.92
2024-01-31T23:17:32.501Z,3.38
2024-01-31T23:19:40.871Z,2.97
2024-01-31T23:21:47.859Z,4.60
2024-01-31T23:23:52.504Z,2.55
2024-01-31T23:25:57.283Z,3.20
2024-01-31T23:28:04.173Z,3.08
2024-01-31T23:30:13.202Z,2.83
2024-01-31T23:32:26.888Z,3.40
2024-01-31T23:34:30.399Z,3.28
2024-01-31T23:36:36.773Z,3.67
2024-01-31T23:38:42.567Z,4.03
2024-01-31T23:40:46.644Z,3.40
2024-01-31T23:42:52.704Z,3.13
2024-01-31T23:45:02.255Z,2.92
2024-01-31T23:47:11.146Z,3.38
2024-01-31T23:49:15.852Z,3.38
2024-01-31T23:51:21.105Z,3.13
2024-01-31T23:53:28.269Z,3.83
2024-01-31T23:55:32.455Z,3.92
2024-01-31T23:57:38.978Z,3.63
2024-01-31T23:59:42.272Z,4.30
